sensor_id;sensor_type;location;lat;lon;timestamp;pressure;altitude;pressure_sealevel;temperature;humidity
37848;BME280;23688;33.130;-117.188;2023-06-05T00:00:08;99030.16;;;19.67;77.63
37848;BME280;23688;33.130;-117.188;2023-06-05T00:02:35;99026.63;;;19.75;79.48
37848;BME280;23688;33.130;-117.188;2023-06-05T00:05:02;99026.63;;;19.67;77.69
37848;BME280;23688;33.130;-117.188;2023-06-05T00:07:30;99034.59;;;19.35;78.45
37848;BME280;23688;33.130;-117.188;2023-06-05T00:09:56;99027.56;;;19.54;82.04
37848;BME280;23688;33.130;-117.188;2023-06-05T00:12:23;99022.28;;;19.43;79.83
37848;BME280;23688;33.130;-117.188;2023-06-05T00:14:49;99039.00;;;19.37;80.44
37848;BME280;23688;33.130;-117.188;2023-06-05T00:17:16;99029.34;;;19.39;79.80
37848;BME280;23688;33.130;-117.188;2023-06-05T00:19:42;99038.09;;;19.49;79.07
37848;BME280;23688;33.130;-117.188;2023-06-05T00:22:09;99037.19;;;19.76;76.94
37848;BME280;23688;33.130;-117.188;2023-06-05T00:24:35;99041.63;;;19.33;78.25
37848;BME280;23688;33.130;-117.188;2023-06-05T00:27:02;99040.78;;;18.98;80.60
37848;BME280;23688;33.130;-117.188;2023-06-05T00:29:28;99046.03;;;19.03;82.92
37848;BME280;23688;33.130;-117.188;2023-06-05T00:31:54;99048.66;;;19.03;81.55
37848;BME280;23688;33.130;-117.188;2023-06-05T00:34:21;99037.25;;;19.01;81.66
37848;BME280;23688;33.130;-117.188;2023-06-05T00:36:47;99048.66;;;19.24;80.26
37848;BME280;23688;33.130;-117.188;2023-06-05T00:39:17;99064.44;;;19.23;79.29
37848;BME280;23688;33.130;-117.188;2023-06-05T00:41:46;99051.28;;;19.14;79.81
37848;BME280;23688;33.130;-117.188;2023-06-05T00:44:13;99051.28;;;19.20;79.75
37848;BME280;23688;33.130;-117.188;2023-06-05T00:46:39;99046.03;;;18.98;80.75
37848;BME280;23688;33.130;-117.188;2023-06-05T00:49:07;99062.59;;;18.47;83.36
37848;BME280;23688;33.130;-117.188;2023-06-05T00:51:34;99066.09;;;18.47;85.29
37848;BME280;23688;33.130;-117.188;2023-06-05T00:54:03;99060.78;;;18.30;85.49
37848;BME280;23688;33.130;-117.188;2023-06-05T00:56:29;99058.22;;;18.52;85.43
37848;BME280;23688;33.130;-117.188;2023-06-05T00:58:58;99055.53;;;18.30;85.11
37848;BME280;23688;33.130;-117.188;2023-06-05T01:01:25;99069.38;;;17.88;88.43
37848;BME280;23688;33.130;-117.188;2023-06-05T01:03:55;99075.56;;;18.02;87.75
37848;BME280;23688;33.130;-117.188;2023-06-05T01:06:25;99072.72;;;17.67;89.26
37848;BME280;23688;33.130;-117.188;2023-06-05T01:08:53;99067.38;;;17.53;89.79
37848;BME280;23688;33.130;-117.188;2023-06-05T01:11:24;99086.53;;;17.40;90.18
37848;BME280;23688;33.130;-117.188;2023-06-05T01:14:02;99071.56;;;17.25;91.64
37848;BME280;23688;33.130;-117.188;2023-06-05T01:16:33;99094.13;;;17.03;94.45
37848;BME280;23688;33.130;-117.188;2023-06-05T01:19:03;99091.25;;;16.80;95.10
37848;BME280;23688;33.130;-117.188;2023-06-05T01:21:32;99099.78;;;16.59;96.52
37848;BME280;23688;33.130;-117.188;2023-06-05T01:23:58;99089.22;;;16.51;96.79
37848;BME280;23688;33.130;-117.188;2023-06-05T01:26:38;99090.75;;;16.35;98.17
37848;BME280;23688;33.130;-117.188;2023-06-05T01:29:11;99102.13;;;16.36;98.46
37848;BME280;23688;33.130;-117.188;2023-06-05T01:31:44;99108.13;;;16.29;99.29
37848;BME280;23688;33.130;-117.188;2023-06-05T01:34:11;99091.25;;;16.03;100.00
37848;BME280;23688;33.130;-117.188;2023-06-05T01:36:41;99095.59;;;16.00;100.00
37848;BME280;23688;33.130;-117.188;2023-06-05T01:39:09;99112.22;;;16.07;100.00
37848;BME280;23688;33.130;-117.188;2023-06-05T01:41:36;99120.28;;;16.20;100.00
37848;BME280;23688;33.130;-117.188;2023-06-05T01:44:06;99109.28;;;16.49;98.91
37848;BME280;23688;33.130;-117.188;2023-06-05T01:46:34;99127.97;;;16.78;97.49
37848;BME280;23688;33.130;-117.188;2023-06-05T01:49:02;99132.16;;;16.67;96.65
37848;BME280;23688;33.130;-117.188;2023-06-05T01:51:28;99129.25;;;16.39;97.53
37848;BME280;23688;33.130;-117.188;2023-06-05T01:53:57;99124.63;;;16.21;99.60
37848;BME280;23688;33.130;-117.188;2023-06-05T01:56:23;99118.75;;;16.41;98.33
37848;BME280;23688;33.130;-117.188;2023-06-05T01:58:50;99138.09;;;16.49;98.29
37848;BME280;23688;33.130;-117.188;2023-06-05T02:01:19;99140.41;;;16.26;99.31
37848;BME280;23688;33.130;-117.188;2023-06-05T02:03:49;99138.88;;;16.42;98.62
37848;BME280;23688;33.130;-117.188;2023-06-05T02:06:16;99136.09;;;16.28;98.61
37848;BME280;23688;33.130;-117.188;2023-06-05T02:08:42;99154.56;;;16.39;98.58
37848;BME280;23688;33.130;-117.188;2023-06-05T02:11:09;99144.88;;;16.33;97.42
37848;BME280;23688;33.130;-117.188;2023-06-05T02:13:39;99151.22;;;16.52;97.53
37848;BME280;23688;33.130;-117.188;2023-06-05T02:16:10;99154.56;;;16.39;97.80
37848;BME280;23688;33.130;-117.188;2023-06-05T02:18:37;99157.22;;;16.42;97.51
37848;BME280;23688;33.130;-117.188;2023-06-05T02:21:04;99156.50;;;16.54;97.31
37848;BME280;23688;33.130;-117.188;2023-06-05T02:23:31;99165.19;;;16.50;96.43
37848;BME280;23688;33.130;-117.188;2023-06-05T02:25:57;99160.75;;;16.44;96.10
37848;BME280;23688;33.130;-117.188;2023-06-05T02:28:24;99166.69;;;16.31;96.95
37848;BME280;23688;33.130;-117.188;2023-06-05T02:30:53;99169.09;;;16.15;97.26
37848;BME280;23688;33.130;-117.188;2023-06-05T02:33:20;99176.81;;;16.04;98.38
37848;BME280;23688;33.130;-117.188;2023-06-05T02:35:47;99181.03;;;15.95;98.92
37848;BME280;23688;33.130;-117.188;2023-06-05T02:38:13;99174.97;;;15.97;98.14
37848;BME280;23688;33.130;-117.188;2023-06-05T02:40:40;99186.97;;;15.84;98.58
37848;BME280;23688;33.130;-117.188;2023-06-05T02:43:06;99178.97;;;15.74;99.26
37848;BME280;23688;33.130;-117.188;2023-06-05T02:45:35;99191.00;;;15.64;99.73
37848;BME280;23688;33.130;-117.188;2023-06-05T02:48:02;99191.75;;;15.57;100.00
37848;BME280;23688;33.130;-117.188;2023-06-05T02:50:28;99195.59;;;15.77;99.71
37848;BME280;23688;33.130;-117.188;2023-06-05T02:52:55;99185.94;;;15.73;99.67
37848;BME280;23688;33.130;-117.188;2023-06-05T02:55:21;99203.63;;;15.88;98.88
37848;BME280;23688;33.130;-117.188;2023-06-05T02:57:48;99189.09;;;15.54;100.00
37848;BME280;23688;33.130;-117.188;2023-06-05T03:00:14;99204.09;;;15.64;100.00
37848;BME280;23688;33.130;-117.188;2023-06-05T03:02:43;99197.56;;;15.40;100.00
37848;BME280;23688;33.130;-117.188;2023-06-05T03:05:15;99211.56;;;15.43;100.00
37848;BME280;23688;33.130;-117.188;2023-06-05T03:07:43;99206.59;;;15.56;100.00
37848;BME280;23688;33.130;-117.188;2023-06-05T03:10:09;99208.56;;;15.70;100.00
37848;BME280;23688;33.130;-117.188;2023-06-05T03:12:36;99222.78;;;15.86;100.00
37848;BME280;23688;33.130;-117.188;2023-06-05T03:15:03;99216.69;;;15.87;99.92
37848;BME280;23688;33.130;-117.188;2023-06-05T03:17:31;99219.09;;;15.74;99.49
37848;BME280;23688;33.130;-117.188;2023-06-05T03:19:59;99218.19;;;15.71;100.00
37848;BME280;23688;33.130;-117.188;2023-06-05T03:22:25;99220.09;;;15.81;99.31
37848;BME280;23688;33.130;-117.188;2023-06-05T03:24:52;99224.56;;;15.88;99.09
37848;BME280;23688;33.130;-117.188;2023-06-05T03:27:18;99229.91;;;15.96;98.70
37848;BME280;23688;33.130;-117.188;2023-06-05T03:29:45;99223.00;;;16.01;98.43
37848;BME280;23688;33.130;-117.188;2023-06-05T03:32:11;99221.13;;;15.91;98.34
37848;BME280;23688;33.130;-117.188;2023-06-05T03:34:37;99228.91;;;15.86;98.91
37848;BME280;23688;33.130;-117.188;2023-06-05T03:37:04;99235.03;;;15.88;98.39
37848;BME280;23688;33.130;-117.188;2023-06-05T03:39:30;99237.75;;;15.93;97.67
37848;BME280;23688;33.130;-117.188;2023-06-05T03:41:57;99236.25;;;16.10;96.18
37848;BME280;23688;33.130;-117.188;2023-06-05T03:44:23;99238.72;;;16.01;96.51
37848;BME280;23688;33.130;-117.188;2023-06-05T03:46:50;99235.44;;;16.14;96.18
37848;BME280;23688;33.130;-117.188;2023-06-05T03:49:16;99229.44;;;16.23;95.00
37848;BME280;23688;33.130;-117.188;2023-06-05T03:51:43;99240.81;;;16.23;95.01
37848;BME280;23688;33.130;-117.188;2023-06-05T03:54:11;99237.09;;;16.08;95.76
37848;BME280;23688;33.130;-117.188;2023-06-05T03:56:38;99242.78;;;15.82;96.83
37848;BME280;23688;33.130;-117.188;2023-06-05T03:59:08;99227.94;;;15.81;97.55
37848;BME280;23688;33.130;-117.188;2023-06-05T04:01:44;99237.09;;;16.08;96.63
37848;BME280;23688;33.130;-117.188;2023-06-05T04:04:11;99243.38;;;16.20;96.45
37848;BME280;23688;33.130;-117.188;2023-06-05T04:06:38;99245.84;;;16.11;96.63
37848;BME280;23688;33.130;-117.188;2023-06-05T04:09:06;99242.50;;;16.20;96.41
37848;BME280;23688;33.130;-117.188;2023-06-05T04:11:40;99249.66;;;16.32;95.57
37848;BME280;23688;33.130;-117.188;2023-06-05T04:14:08;99240.84;;;16.25;95.74
37848;BME280;23688;33.130;-117.188;2023-06-05T04:16:36;99240.72;;;16.17;95.93
37848;BME280;23688;33.130;-117.188;2023-06-05T04:19:10;99248.75;;;16.31;95.65
37848;BME280;23688;33.130;-117.188;2023-06-05T04:21:37;99256.75;;;16.39;95.26
37848;BME280;23688;33.130;-117.188;2023-06-05T04:24:08;99262.94;;;16.44;95.37
37848;BME280;23688;33.130;-117.188;2023-06-05T04:26:37;99248.13;;;16.46;95.02
37848;BME280;23688;33.130;-117.188;2023-06-05T04:29:04;99244.66;;;16.48;94.89
37848;BME280;23688;33.130;-117.188;2023-06-05T04:31:48;99256.56;;;16.25;95.33
37848;BME280;23688;33.130;-117.188;2023-06-05T04:34:16;99249.41;;;16.15;96.06
37848;BME280;23688;33.130;-117.188;2023-06-05T04:36:44;99256.97;;;15.96;97.29
37848;BME280;23688;33.130;-117.188;2023-06-05T04:39:10;99250.69;;;15.83;98.08
37848;BME280;23688;33.130;-117.188;2023-06-05T04:41:43;99268.59;;;16.12;97.55
37848;BME280;23688;33.130;-117.188;2023-06-05T04:44:14;99266.00;;;16.15;97.14
37848;BME280;23688;33.130;-117.188;2023-06-05T04:46:46;99253.84;;;16.20;96.79
37848;BME280;23688;33.130;-117.188;2023-06-05T04:49:15;99269.69;;;16.28;96.46
37848;BME280;23688;33.130;-117.188;2023-06-05T04:51:42;99265.03;;;16.09;97.15
37848;BME280;23688;33.130;-117.188;2023-06-05T04:54:09;99278.38;;;16.25;97.32
37848;BME280;23688;33.130;-117.188;2023-06-05T04:56:36;99260.94;;;16.27;96.63
37848;BME280;23688;33.130;-117.188;2023-06-05T04:59:04;99274.25;;;16.41;96.13
37848;BME280;23688;33.130;-117.188;2023-06-05T05:01:31;99278.56;;;16.36;96.40
37848;BME280;23688;33.130;-117.188;2023-06-05T05:03:59;99257.41;;;16.25;96.26
37848;BME280;23688;33.130;-117.188;2023-06-05T05:06:25;99277.75;;;15.86;98.41
37848;BME280;23688;33.130;-117.188;2023-06-05T05:08:52;99273.44;;;15.88;98.97
37848;BME280;23688;33.130;-117.188;2023-06-05T05:11:18;99274.41;;;15.94;98.79
37848;BME280;23688;33.130;-117.188;2023-06-05T05:13:45;99269.25;;;15.99;98.36
37848;BME280;23688;33.130;-117.188;2023-06-05T05:16:11;99275.63;;;16.16;98.00
37848;BME280;23688;33.130;-117.188;2023-06-05T05:18:43;99276.34;;;16.06;98.32
37848;BME280;23688;33.130;-117.188;2023-06-05T05:21:10;99269.34;;;16.05;98.46
37848;BME280;23688;33.130;-117.188;2023-06-05T05:23:36;99269.34;;;16.05;98.79
37848;BME280;23688;33.130;-117.188;2023-06-05T05:26:02;99263.38;;;16.15;97.95
37848;BME280;23688;33.130;-117.188;2023-06-05T05:28:29;99249.53;;;16.22;97.68
37848;BME280;23688;33.130;-117.188;2023-06-05T05:30:56;99265.38;;;16.33;97.05
37848;BME280;23688;33.130;-117.188;2023-06-05T05:33:23;99253.97;;;16.26;96.64
37848;BME280;23688;33.130;-117.188;2023-06-05T05:35:49;99265.44;;;16.35;96.75
37848;BME280;23688;33.130;-117.188;2023-06-05T05:38:16;99262.75;;;16.33;97.09
37848;BME280;23688;33.130;-117.188;2023-06-05T05:40:42;99264.59;;;16.37;96.98
37848;BME280;23688;33.130;-117.188;2023-06-05T05:43:09;99264.56;;;16.36;97.03
37848;BME280;23688;33.130;-117.188;2023-06-05T05:45:35;99265.09;;;16.13;98.10
37848;BME280;23688;33.130;-117.188;2023-06-05T05:48:04;99255.56;;;16.18;97.87
37848;BME280;23688;33.130;-117.188;2023-06-05T05:50:31;99250.38;;;16.20;97.95
37848;BME280;23688;33.130;-117.188;2023-06-05T05:52:57;99258.88;;;16.05;98.38
37848;BME280;23688;33.130;-117.188;2023-06-05T05:55:24;99254.03;;;15.76;100.00
37848;BME280;23688;33.130;-117.188;2023-06-05T05:57:50;99247.97;;;15.79;100.00
37848;BME280;23688;33.130;-117.188;2023-06-05T06:00:17;99258.22;;;15.67;100.00
37848;BME280;23688;33.130;-117.188;2023-06-05T06:02:43;99262.75;;;15.75;100.00
37848;BME280;23688;33.130;-117.188;2023-06-05T06:05:10;99249.75;;;15.81;100.00
37848;BME280;23688;33.130;-117.188;2023-06-05T06:07:38;99244.00;;;16.02;100.00
37848;BME280;23688;33.130;-117.188;2023-06-05T06:10:08;99245.97;;;16.19;99.68
37848;BME280;23688;33.130;-117.188;2023-06-05T06:12:34;99258.41;;;16.34;99.24
37848;BME280;23688;33.130;-117.188;2023-06-05T06:15:00;99235.53;;;16.20;99.11
37848;BME280;23688;33.130;-117.188;2023-06-05T06:17:28;99253.25;;;16.40;98.44
37848;BME280;23688;33.130;-117.188;2023-06-05T06:19:55;99229.72;;;16.41;97.43
37848;BME280;23688;33.130;-117.188;2023-06-05T06:22:23;99223.41;;;16.27;97.98
37848;BME280;23688;33.130;-117.188;2023-06-05T06:24:49;99237.34;;;16.26;98.12
37848;BME280;23688;33.130;-117.188;2023-06-05T06:27:18;99251.41;;;16.33;97.96
37848;BME280;23688;33.130;-117.188;2023-06-05T06:29:51;99240.91;;;16.31;98.23
37848;BME280;23688;33.130;-117.188;2023-06-05T06:32:22;99218.22;;;16.33;97.91
37848;BME280;23688;33.130;-117.188;2023-06-05T06:34:51;99240.28;;;16.51;97.56
37848;BME280;23688;33.130;-117.188;2023-06-05T06:37:20;99239.44;;;16.53;97.14
37848;BME280;23688;33.130;-117.188;2023-06-05T06:39:47;99230.63;;;16.45;96.69
37848;BME280;23688;33.130;-117.188;2023-06-05T06:42:14;99229.81;;;16.49;97.01
37848;BME280;23688;33.130;-117.188;2023-06-05T06:44:40;99225.38;;;16.45;97.26
37848;BME280;23688;33.130;-117.188;2023-06-05T06:47:07;99234.19;;;16.48;97.10
37848;BME280;23688;33.130;-117.188;2023-06-05T06:49:34;99224.47;;;16.43;97.00
37848;BME280;23688;33.130;-117.188;2023-06-05T06:52:01;99233.28;;;16.46;96.87
37848;BME280;23688;33.130;-117.188;2023-06-05T06:54:27;99235.91;;;16.48;97.32
37848;BME280;23688;33.130;-117.188;2023-06-05T06:56:55;99215.69;;;16.38;97.66
37848;BME280;23688;33.130;-117.188;2023-06-05T06:59:24;99233.19;;;16.40;97.87
37848;BME280;23688;33.130;-117.188;2023-06-05T07:02:13;99239.25;;;16.36;98.11
37848;BME280;23688;33.130;-117.188;2023-06-05T07:04:40;99229.66;;;16.38;98.05
37848;BME280;23688;33.130;-117.188;2023-06-05T07:07:11;99234.03;;;16.38;98.27
37848;BME280;23688;33.130;-117.188;2023-06-05T07:09:39;99229.72;;;16.43;98.19
37848;BME280;23688;33.130;-117.188;2023-06-05T07:12:07;99217.44;;;16.37;97.94
37848;BME280;23688;33.130;-117.188;2023-06-05T07:14:34;99225.16;;;16.26;98.62
37848;BME280;23688;33.130;-117.188;2023-06-05T07:17:00;99224.97;;;16.14;99.78
37848;BME280;23688;33.130;-117.188;2023-06-05T07:19:28;99205.63;;;16.06;100.00
37848;BME280;23688;33.130;-117.188;2023-06-05T07:21:56;99218.84;;;16.14;100.00
37848;BME280;23688;33.130;-117.188;2023-06-05T07:24:24;99214.09;;;15.90;100.00
37848;BME280;23688;33.130;-117.188;2023-06-05T07:26:54;99209.59;;;15.78;100.00
37848;BME280;23688;33.130;-117.188;2023-06-05T07:29:24;99227.84;;;15.75;100.00
37848;BME280;23688;33.130;-117.188;2023-06-05T07:31:51;99207.28;;;15.48;100.00
37848;BME280;23688;33.130;-117.188;2023-06-05T07:34:18;99213.84;;;15.71;100.00
37848;BME280;23688;33.130;-117.188;2023-06-05T07:36:47;99227.06;;;15.80;100.00
37848;BME280;23688;33.130;-117.188;2023-06-05T07:39:14;99203.97;;;15.58;100.00
37848;BME280;23688;33.130;-117.188;2023-06-05T07:41:41;99206.53;;;15.53;100.00
37848;BME280;23688;33.130;-117.188;2023-06-05T07:44:10;99207.94;;;15.34;100.00
37848;BME280;23688;33.130;-117.188;2023-06-05T07:46:36;99204.59;;;15.41;100.00
37848;BME280;23688;33.130;-117.188;2023-06-05T07:49:03;99204.75;;;15.52;100.00
37848;BME280;23688;33.130;-117.188;2023-06-05T07:51:29;99197.50;;;15.36;100.00
37848;BME280;23688;33.130;-117.188;2023-06-05T07:53:59;99191.34;;;15.32;100.00
37848;BME280;23688;33.130;-117.188;2023-06-05T07:56:26;99197.41;;;15.30;100.00
37848;BME280;23688;33.130;-117.188;2023-06-05T07:58:55;99181.59;;;15.24;100.00
37848;BME280;23688;33.130;-117.188;2023-06-05T08:01:22;99188.53;;;15.20;100.00
37848;BME280;23688;33.130;-117.188;2023-06-05T08:03:51;99174.66;;;15.24;100.00
37848;BME280;23688;33.130;-117.188;2023-06-05T08:06:17;99182.63;;;15.32;100.00
37848;BME280;23688;33.130;-117.188;2023-06-05T08:08:44;99180.72;;;15.22;100.00
37848;BME280;23688;33.130;-117.188;2023-06-05T08:11:12;99194.06;;;15.38;100.00
37848;BME280;23688;33.130;-117.188;2023-06-05T08:13:38;99171.50;;;15.44;100.00
37848;BME280;23688;33.130;-117.188;2023-06-05T08:16:05;99190.13;;;15.63;100.00
37848;BME280;23688;33.130;-117.188;2023-06-05T08:18:32;99177.03;;;15.63;100.00
37848;BME280;23688;33.130;-117.188;2023-06-05T08:20:58;99164.19;;;15.76;100.00
37848;BME280;23688;33.130;-117.188;2023-06-05T08:23:25;99164.94;;;15.70;100.00
37848;BME280;23688;33.130;-117.188;2023-06-05T08:25:53;99172.00;;;15.73;100.00
37848;BME280;23688;33.130;-117.188;2023-06-05T08:28:19;99160.50;;;15.68;100.00
37848;BME280;23688;33.130;-117.188;2023-06-05T08:30:46;99164.63;;;15.52;100.00
37848;BME280;23688;33.130;-117.188;2023-06-05T08:33:12;99146.09;;;15.38;100.00
37848;BME280;23688;33.130;-117.188;2023-06-05T08:35:40;99167.22;;;15.49;100.00
37848;BME280;23688;33.130;-117.188;2023-06-05T08:38:07;99148.97;;;15.55;100.00
37848;BME280;23688;33.130;-117.188;2023-06-05T08:40:34;99157.03;;;15.67;100.00
37848;BME280;23688;33.130;-117.188;2023-06-05T08:43:02;99156.19;;;15.68;100.00
37848;BME280;23688;33.130;-117.188;2023-06-05T08:45:31;99142.94;;;15.60;100.00
37848;BME280;23688;33.130;-117.188;2023-06-05T08:47:59;99160.75;;;15.81;100.00
37848;BME280;23688;33.130;-117.188;2023-06-05T08:50:28;99148.44;;;15.73;100.00
37848;BME280;23688;33.130;-117.188;2023-06-05T08:52:59;99148.53;;;15.82;100.00
37848;BME280;23688;33.130;-117.188;2023-06-05T08:55:26;99151.34;;;15.93;100.00
37848;BME280;23688;33.130;-117.188;2023-06-05T08:57:57;99146.13;;;15.96;100.00
37848;BME280;23688;33.130;-117.188;2023-06-05T09:00:24;99151.34;;;15.94;100.00
37848;BME280;23688;33.130;-117.188;2023-06-05T09:02:51;99143.56;;;15.97;100.00
37848;BME280;23688;33.130;-117.188;2023-06-05T09:05:17;99152.25;;;15.96;100.00
37848;BME280;23688;33.130;-117.188;2023-06-05T09:07:44;99127.53;;;15.77;100.00
37848;BME280;23688;33.130;-117.188;2023-06-05T09:10:26;99150.53;;;15.98;100.00
37848;BME280;23688;33.130;-117.188;2023-06-05T09:13:00;99137.41;;;15.95;100.00
37848;BME280;23688;33.130;-117.188;2023-06-05T09:15:31;99144.47;;;16.01;100.00
37848;BME280;23688;33.130;-117.188;2023-06-05T09:18:12;99131.44;;;16.05;100.00
37848;BME280;23688;33.130;-117.188;2023-06-05T09:20:41;99134.13;;;16.12;100.00
37848;BME280;23688;33.130;-117.188;2023-06-05T09:23:27;99131.50;;;16.12;100.00
37848;BME280;23688;33.130;-117.188;2023-06-05T09:25:57;99121.84;;;16.06;100.00
37848;BME280;23688;33.130;-117.188;2023-06-05T09:28:25;99121.78;;;16.00;100.00
37848;BME280;23688;33.130;-117.188;2023-06-05T09:31:00;99130.44;;;15.96;100.00
37848;BME280;23688;33.130;-117.188;2023-06-05T09:33:29;99127.88;;;16.02;100.00
37848;BME280;23688;33.130;-117.188;2023-06-05T09:36:05;99124.44;;;16.06;100.00
37848;BME280;23688;33.130;-117.188;2023-06-05T09:38:32;99127.09;;;16.08;100.00
37848;BME280;23688;33.130;-117.188;2023-06-05T09:41:12;99120.16;;;16.10;100.00
37848;BME280;23688;33.130;-117.188;2023-06-05T09:43:44;99116.69;;;16.14;100.00
37848;BME280;23688;33.130;-117.188;2023-06-05T09:46:15;99122.78;;;16.11;100.00
37848;BME280;23688;33.130;-117.188;2023-06-05T09:48:42;99108.75;;;16.06;100.00
37848;BME280;23688;33.130;-117.188;2023-06-05T09:51:16;99120.19;;;16.13;100.00
37848;BME280;23688;33.130;-117.188;2023-06-05T09:53:50;99122.88;;;16.17;100.00
37848;BME280;23688;33.130;-117.188;2023-06-05T09:56:18;99107.13;;;16.14;100.00
37848;BME280;23688;33.130;-117.188;2023-06-05T09:58:49;99109.78;;;16.17;100.00
37848;BME280;23688;33.130;-117.188;2023-06-05T10:01:18;99117.56;;;16.13;100.00
37848;BME280;23688;33.130;-117.188;2023-06-05T10:04:09;99117.53;;;16.10;100.00
37848;BME280;23688;33.130;-117.188;2023-06-05T10:06:36;99105.25;;;16.05;100.00
37848;BME280;23688;33.130;-117.188;2023-06-05T10:09:04;99107.91;;;16.09;100.00
37848;BME280;23688;33.130;-117.188;2023-06-05T10:11:30;99115.81;;;16.13;100.00
37848;BME280;23688;33.130;-117.188;2023-06-05T10:13:58;99114.97;;;16.16;100.00
37848;BME280;23688;33.130;-117.188;2023-06-05T10:16:28;99112.41;;;16.20;100.00
37848;BME280;23688;33.130;-117.188;2023-06-05T10:18:58;99117.69;;;16.23;100.00
37848;BME280;23688;33.130;-117.188;2023-06-05T10:21:25;99107.13;;;16.16;100.00
37848;BME280;23688;33.130;-117.188;2023-06-05T10:29:49;99116.59;;;16.04;100.00
37848;BME280;23688;33.130;-117.188;2023-06-05T10:40:11;99107.91;;;15.51;100.00
37848;BME280;23688;33.130;-117.188;2023-06-05T10:42:38;99116.78;;;15.59;100.00
37848;BME280;23688;33.130;-117.188;2023-06-05T10:45:06;99109.84;;;15.61;100.00
37848;BME280;23688;33.130;-117.188;2023-06-05T10:50:31;99122.22;;;15.71;100.00
37848;BME280;23688;33.130;-117.188;2023-06-05T10:52:57;99128.28;;;15.69;100.00
37848;BME280;23688;33.130;-117.188;2023-06-05T10:55:24;99115.97;;;15.63;100.00
37848;BME280;23688;33.130;-117.188;2023-06-05T10:58:07;99124.72;;;15.65;100.00
37848;BME280;23688;33.130;-117.188;2023-06-05T11:00:34;99123.84;;;15.65;100.00
37848;BME280;23688;33.130;-117.188;2023-06-05T11:03:01;99113.38;;;15.65;100.00
37848;BME280;23688;33.130;-117.188;2023-06-05T11:05:28;99106.22;;;15.53;100.00
37848;BME280;23688;33.130;-117.188;2023-06-05T11:08:14;99115.72;;;15.48;100.00
37848;BME280;23688;33.130;-117.188;2023-06-05T11:11:06;99108.59;;;15.37;100.00
37848;BME280;23688;33.130;-117.188;2023-06-05T11:13:54;99120.56;;;15.22;100.00
37848;BME280;23688;33.130;-117.188;2023-06-05T11:18:54;99108.78;;;15.50;100.00
37848;BME280;23688;33.130;-117.188;2023-06-05T11:21:20;99099.25;;;15.55;100.00
37848;BME280;23688;33.130;-117.188;2023-06-05T11:24:15;99108.34;;;15.75;100.00
37848;BME280;23688;33.130;-117.188;2023-06-05T11:26:42;99109.19;;;15.74;100.00
37848;BME280;23688;33.130;-117.188;2023-06-05T11:29:13;99111.84;;;15.76;100.00
37848;BME280;23688;33.130;-117.188;2023-06-05T11:31:40;99106.56;;;15.74;100.00
37848;BME280;23688;33.130;-117.188;2023-06-05T11:34:15;99107.38;;;15.70;100.00
37848;BME280;23688;33.130;-117.188;2023-06-05T11:36:41;99106.50;;;15.70;100.00
37848;BME280;23688;33.130;-117.188;2023-06-05T11:39:07;99100.41;;;15.71;100.00
37848;BME280;23688;33.130;-117.188;2023-06-05T11:41:34;99089.94;;;15.72;100.00
37848;BME280;23688;33.130;-117.188;2023-06-05T11:44:00;99097.84;;;15.74;100.00
37848;BME280;23688;33.130;-117.188;2023-06-05T11:46:39;99101.88;;;15.55;100.00
37848;BME280;23688;33.130;-117.188;2023-06-05T11:49:09;99089.41;;;15.38;100.00
37848;BME280;23688;33.130;-117.188;2023-06-05T11:51:36;99091.22;;;15.43;100.00
37848;BME280;23688;33.130;-117.188;2023-06-05T11:54:03;99093.94;;;15.47;100.00
37848;BME280;23688;33.130;-117.188;2023-06-05T11:56:31;99107.72;;;15.37;100.00
37848;BME280;23688;33.130;-117.188;2023-06-05T11:58:58;99101.63;;;15.36;100.00
37848;BME280;23688;33.130;-117.188;2023-06-05T12:01:24;99105.88;;;15.31;100.00
37848;BME280;23688;33.130;-117.188;2023-06-05T12:04:07;99103.25;;;15.31;100.00
37848;BME280;23688;33.130;-117.188;2023-06-05T12:06:40;99106.75;;;15.30;100.00
37848;BME280;23688;33.130;-117.188;2023-06-05T12:09:12;99117.88;;;15.17;100.00
37848;BME280;23688;33.130;-117.188;2023-06-05T12:11:41;99116.41;;;14.84;100.00
37848;BME280;23688;33.130;-117.188;2023-06-05T12:14:13;99108.59;;;14.86;100.00
37848;BME280;23688;33.130;-117.188;2023-06-05T12:16:53;99107.94;;;14.97;100.00
37848;BME280;23688;33.130;-117.188;2023-06-05T12:19:19;99108.59;;;14.86;100.00
37848;BME280;23688;33.130;-117.188;2023-06-05T12:21:47;99120.97;;;14.96;100.00
37848;BME280;23688;33.130;-117.188;2023-06-05T12:24:14;99105.97;;;14.84;100.00
37848;BME280;23688;33.130;-117.188;2023-06-05T12:26:56;99115.75;;;14.96;100.00
37848;BME280;23688;33.130;-117.188;2023-06-05T12:29:27;99112.13;;;14.89;100.00
37848;BME280;23688;33.130;-117.188;2023-06-05T12:31:58;99112.19;;;14.91;100.00
37848;BME280;23688;33.130;-117.188;2023-06-05T12:34:43;99130.56;;;14.95;100.00
37848;BME280;23688;33.130;-117.188;2023-06-05T12:37:34;99119.72;;;14.74;100.00
37848;BME280;23688;33.130;-117.188;2023-06-05T12:40:03;99103.91;;;14.68;100.00
37848;BME280;23688;33.130;-117.188;2023-06-05T12:42:37;99113.94;;;14.92;100.00
37848;BME280;23688;33.130;-117.188;2023-06-05T12:45:04;99117.78;;;15.12;100.00
37848;BME280;23688;33.130;-117.188;2023-06-05T12:47:32;99104.91;;;15.26;100.00
37848;BME280;23688;33.130;-117.188;2023-06-05T12:49:59;99115.72;;;15.48;100.00
37848;BME280;23688;33.130;-117.188;2023-06-05T12:52:25;99119.41;;;15.59;100.00